sensor_id;sensor_type;location;lat;lon;timestamp;P1;durP1;ratioP1;P2;durP2;ratioP2
751;SDS011;360;48.764;9.164;2022-08-05T00:00:07;3.00;;;2.70;;
751;SDS011;360;48.764;9.164;2022-08-05T00:02:34;4.30;;;2.60;;
751;SDS011;360;48.764;9.164;2022-08-05T00:05:04;3.90;;;2.37;;
751;SDS011;360;48.764;9.164;2022-08-05T00:07:32;2.87;;;2.67;;
751;SDS011;360;48.764;9.164;2022-08-05T00:09:59;3.03;;;2.73;;
751;SDS011;360;48.764;9.164;2022-08-05T00:12:26;3.03;;;2.50;;
751;SDS011;360;48.764;9.164;2022-08-05T00:14:53;2.90;;;2.63;;
751;SDS011;360;48.764;9.164;2022-08-05T00:17:20;3.00;;;2.77;;
751;SDS011;360;48.764;9.164;2022-08-05T00:19:47;2.40;;;2.23;;
751;SDS011;360;48.764;9.164;2022-08-05T00:22:16;2.43;;;2.23;;
751;SDS011;360;48.764;9.164;2022-08-05T00:24:43;2.40;;;2.00;;
751;SDS011;360;48.764;9.164;2022-08-05T00:27:10;3.37;;;2.53;;
751;SDS011;360;48.764;9.164;2022-08-05T00:29:37;3.00;;;2.80;;
751;SDS011;360;48.764;9.164;2022-08-05T00:32:04;2.53;;;2.20;;
751;SDS011;360;48.764;9.164;2022-08-05T00:34:32;2.37;;;2.17;;
751;SDS011;360;48.764;9.164;2022-08-05T00:37:00;3.17;;;2.63;;
751;SDS011;360;48.764;9.164;2022-08-05T00:39:28;3.07;;;2.83;;
751;SDS011;360;48.764;9.164;2022-08-05T00:41:55;3.77;;;2.70;;
751;SDS011;360;48.764;9.164;2022-08-05T00:44:23;2.20;;;2.10;;
751;SDS011;360;48.764;9.164;2022-08-05T00:46:50;3.57;;;2.93;;
751;SDS011;360;48.764;9.164;2022-08-05T00:49:17;2.70;;;2.50;;
751;SDS011;360;48.764;9.164;2022-08-05T00:51:44;2.17;;;2.07;;
751;SDS011;360;48.764;9.164;2022-08-05T00:54:11;2.00;;;1.90;;
751;SDS011;360;48.764;9.164;2022-08-05T00:56:40;2.70;;;2.40;;
751;SDS011;360;48.764;9.164;2022-08-05T00:59:07;3.00;;;2.70;;
751;SDS011;360;48.764;9.164;2022-08-05T01:01:34;2.43;;;2.23;;
751;SDS011;360;48.764;9.164;2022-08-05T01:04:02;2.57;;;2.37;;
751;SDS011;360;48.764;9.164;2022-08-05T01:06:29;3.67;;;2.40;;
751;SDS011;360;48.764;9.164;2022-08-05T01:08:56;2.40;;;2.20;;
751;SDS011;360;48.764;9.164;2022-08-05T01:11:26;2.57;;;2.30;;
751;SDS011;360;48.764;9.164;2022-08-05T01:14:08;2.70;;;1.60;;
751;SDS011;360;48.764;9.164;2022-08-05T01:16:42;2.10;;;1.90;;
751;SDS011;360;48.764;9.164;2022-08-05T01:19:21;2.07;;;1.80;;
751;SDS011;360;48.764;9.164;2022-08-05T01:22:03;2.30;;;2.10;;
751;SDS011;360;48.764;9.164;2022-08-05T01:24:58;2.10;;;1.83;;
751;SDS011;360;48.764;9.164;2022-08-05T01:27:46;2.30;;;1.80;;
751;SDS011;360;48.764;9.164;2022-08-05T01:30:14;5.13;;;1.93;;
751;SDS011;360;48.764;9.164;2022-08-05T01:32:42;3.33;;;2.10;;
751;SDS011;360;48.764;9.164;2022-08-05T01:35:12;2.43;;;2.23;;
751;SDS011;360;48.764;9.164;2022-08-05T01:37:42;2.13;;;1.87;;
751;SDS011;360;48.764;9.164;2022-08-05T01:40:10;1.50;;;1.30;;
751;SDS011;360;48.764;9.164;2022-08-05T01:42:38;2.03;;;1.80;;
751;SDS011;360;48.764;9.164;2022-08-05T01:45:07;1.70;;;1.60;;
751;SDS011;360;48.764;9.164;2022-08-05T01:47:35;2.00;;;1.60;;
751;SDS011;360;48.764;9.164;2022-08-05T01:50:03;2.70;;;1.70;;
751;SDS011;360;48.764;9.164;2022-08-05T01:52:31;2.20;;;1.67;;
751;SDS011;360;48.764;9.164;2022-08-05T01:55:03;2.40;;;2.20;;
751;SDS011;360;48.764;9.164;2022-08-05T01:57:32;2.13;;;1.60;;
751;SDS011;360;48.764;9.164;2022-08-05T02:00:02;3.27;;;1.80;;
751;SDS011;360;48.764;9.164;2022-08-05T02:02:31;2.90;;;2.20;;
751;SDS011;360;48.764;9.164;2022-08-05T02:04:59;4.03;;;2.00;;
751;SDS011;360;48.764;9.164;2022-08-05T02:07:26;3.50;;;2.00;;
751;SDS011;360;48.764;9.164;2022-08-05T02:09:54;2.17;;;1.90;;
751;SDS011;360;48.764;9.164;2022-08-05T02:12:22;2.20;;;2.00;;
751;SDS011;360;48.764;9.164;2022-08-05T02:14:51;2.00;;;1.80;;
751;SDS011;360;48.764;9.164;2022-08-05T02:17:24;3.20;;;2.00;;
751;SDS011;360;48.764;9.164;2022-08-05T02:19:57;2.73;;;2.13;;
751;SDS011;360;48.764;9.164;2022-08-05T02:22:27;3.10;;;1.87;;
751;SDS011;360;48.764;9.164;2022-08-05T02:24:57;2.37;;;2.13;;
751;SDS011;360;48.764;9.164;2022-08-05T02:27:25;1.77;;;1.67;;
751;SDS011;360;48.764;9.164;2022-08-05T02:29:53;2.63;;;1.83;;
751;SDS011;360;48.764;9.164;2022-08-05T02:32:21;2.20;;;2.00;;
751;SDS011;360;48.764;9.164;2022-08-05T02:34:51;2.10;;;1.90;;
751;SDS011;360;48.764;9.164;2022-08-05T02:37:20;2.33;;;2.13;;
751;SDS011;360;48.764;9.164;2022-08-05T02:39:48;6.67;;;2.07;;
751;SDS011;360;48.764;9.164;2022-08-05T02:42:16;2.70;;;1.77;;
751;SDS011;360;48.764;9.164;2022-08-05T02:44:44;2.47;;;1.80;;
751;SDS011;360;48.764;9.164;2022-08-05T02:47:12;2.80;;;1.53;;
751;SDS011;360;48.764;9.164;2022-08-05T02:49:40;2.00;;;1.83;;
751;SDS011;360;48.764;9.164;2022-08-05T02:52:09;2.53;;;1.93;;
751;SDS011;360;48.764;9.164;2022-08-05T02:54:38;2.10;;;1.90;;
751;SDS011;360;48.764;9.164;2022-08-05T02:57:06;2.13;;;1.80;;
751;SDS011;360;48.764;9.164;2022-08-05T02:59:34;3.10;;;2.00;;
751;SDS011;360;48.764;9.164;2022-08-05T03:02:02;2.30;;;2.10;;
751;SDS011;360;48.764;9.164;2022-08-05T03:04:30;3.03;;;2.37;;
751;SDS011;360;48.764;9.164;2022-08-05T03:06:58;2.43;;;1.67;;
751;SDS011;360;48.764;9.164;2022-08-05T03:09:25;2.17;;;1.97;;
751;SDS011;360;48.764;9.164;2022-08-05T03:11:54;4.17;;;1.87;;
751;SDS011;360;48.764;9.164;2022-08-05T03:14:21;5.00;;;1.90;;
751;SDS011;360;48.764;9.164;2022-08-05T03:16:48;2.07;;;1.93;;
751;SDS011;360;48.764;9.164;2022-08-05T03:19:15;3.63;;;2.30;;
751;SDS011;360;48.764;9.164;2022-08-05T03:21:42;2.10;;;2.00;;
751;SDS011;360;48.764;9.164;2022-08-05T03:24:10;2.97;;;2.20;;
751;SDS011;360;48.764;9.164;2022-08-05T03:26:37;3.90;;;2.13;;
751;SDS011;360;48.764;9.164;2022-08-05T03:29:06;2.07;;;1.83;;
751;SDS011;360;48.764;9.164;2022-08-05T03:31:33;1.83;;;1.70;;
751;SDS011;360;48.764;9.164;2022-08-05T03:34:01;2.50;;;2.07;;
751;SDS011;360;48.764;9.164;2022-08-05T03:36:28;1.97;;;1.73;;
751;SDS011;360;48.764;9.164;2022-08-05T03:38:55;2.40;;;2.20;;
751;SDS011;360;48.764;9.164;2022-08-05T03:41:23;2.87;;;2.23;;
751;SDS011;360;48.764;9.164;2022-08-05T03:43:50;1.67;;;1.57;;
751;SDS011;360;48.764;9.164;2022-08-05T03:46:19;2.20;;;2.00;;
751;SDS011;360;48.764;9.164;2022-08-05T03:48:46;1.90;;;1.80;;
751;SDS011;360;48.764;9.164;2022-08-05T03:51:14;3.10;;;2.20;;
751;SDS011;360;48.764;9.164;2022-08-05T03:53:46;2.23;;;1.80;;
751;SDS011;360;48.764;9.164;2022-08-05T03:56:16;2.17;;;1.90;;
751;SDS011;360;48.764;9.164;2022-08-05T03:58:45;2.70;;;2.00;;
751;SDS011;360;48.764;9.164;2022-08-05T04:01:14;3.70;;;2.20;;
751;SDS011;360;48.764;9.164;2022-08-05T04:03:44;2.60;;;1.97;;
751;SDS011;360;48.764;9.164;2022-08-05T04:06:12;2.20;;;2.00;;
751;SDS011;360;48.764;9.164;2022-08-05T04:08:39;2.00;;;1.80;;
751;SDS011;360;48.764;9.164;2022-08-05T04:11:07;2.37;;;1.83;;
751;SDS011;360;48.764;9.164;2022-08-05T04:13:37;2.50;;;2.30;;
751;SDS011;360;48.764;9.164;2022-08-05T04:16:05;2.23;;;2.03;;
751;SDS011;360;48.764;9.164;2022-08-05T04:18:33;2.70;;;1.97;;
751;SDS011;360;48.764;9.164;2022-08-05T04:21:03;3.13;;;2.47;;
751;SDS011;360;48.764;9.164;2022-08-05T04:23:31;2.43;;;2.20;;
751;SDS011;360;48.764;9.164;2022-08-05T04:25:58;3.83;;;2.40;;
751;SDS011;360;48.764;9.164;2022-08-05T04:28:25;4.57;;;2.13;;
751;SDS011;360;48.764;9.164;2022-08-05T04:30:53;2.40;;;2.10;;
751;SDS011;360;48.764;9.164;2022-08-05T04:33:20;2.53;;;2.33;;
751;SDS011;360;48.764;9.164;2022-08-05T04:35:47;3.33;;;2.20;;
751;SDS011;360;48.764;9.164;2022-08-05T04:38:15;2.20;;;2.00;;
751;SDS011;360;48.764;9.164;2022-08-05T04:40:42;3.60;;;2.03;;
751;SDS011;360;48.764;9.164;2022-08-05T04:43:10;5.63;;;2.37;;
751;SDS011;360;48.764;9.164;2022-08-05T04:45:37;2.97;;;2.30;;
751;SDS011;360;48.764;9.164;2022-08-05T04:48:04;3.53;;;2.17;;
751;SDS011;360;48.764;9.164;2022-08-05T04:50:36;2.40;;;2.20;;
751;SDS011;360;48.764;9.164;2022-08-05T04:53:04;2.43;;;2.10;;
751;SDS011;360;48.764;9.164;2022-08-05T04:55:32;3.30;;;2.70;;
751;SDS011;360;48.764;9.164;2022-08-05T04:57:59;2.40;;;2.17;;
751;SDS011;360;48.764;9.164;2022-08-05T05:00:26;2.47;;;2.27;;
751;SDS011;360;48.764;9.164;2022-08-05T05:02:54;2.93;;;2.57;;
751;SDS011;360;48.764;9.164;2022-08-05T05:05:21;2.60;;;2.40;;
751;SDS011;360;48.764;9.164;2022-08-05T05:07:48;3.87;;;2.70;;
751;SDS011;360;48.764;9.164;2022-08-05T05:10:15;2.90;;;2.60;;
751;SDS011;360;48.764;9.164;2022-08-05T05:12:44;3.30;;;2.60;;
751;SDS011;360;48.764;9.164;2022-08-05T05:15:11;2.47;;;2.23;;
751;SDS011;360;48.764;9.164;2022-08-05T05:17:38;3.00;;;2.10;;
751;SDS011;360;48.764;9.164;2022-08-05T05:20:06;2.33;;;2.13;;
751;SDS011;360;48.764;9.164;2022-08-05T05:22:34;3.30;;;2.93;;
751;SDS011;360;48.764;9.164;2022-08-05T05:25:01;2.20;;;1.90;;
751;SDS011;360;48.764;9.164;2022-08-05T05:27:28;2.47;;;2.03;;
751;SDS011;360;48.764;9.164;2022-08-05T05:29:57;2.67;;;2.47;;
751;SDS011;360;48.764;9.164;2022-08-05T05:32:24;2.60;;;2.30;;
751;SDS011;360;48.764;9.164;2022-08-05T05:34:51;2.93;;;2.63;;
751;SDS011;360;48.764;9.164;2022-08-05T05:37:18;2.30;;;2.10;;
751;SDS011;360;48.764;9.164;2022-08-05T05:39:45;5.03;;;2.80;;
751;SDS011;360;48.764;9.164;2022-08-05T05:42:13;2.63;;;2.43;;
751;SDS011;360;48.764;9.164;2022-08-05T05:44:40;2.53;;;2.33;;
751;SDS011;360;48.764;9.164;2022-08-05T05:47:08;2.77;;;2.57;;
751;SDS011;360;48.764;9.164;2022-08-05T05:49:35;3.10;;;2.83;;
751;SDS011;360;48.764;9.164;2022-08-05T05:52:03;4.70;;;2.93;;
751;SDS011;360;48.764;9.164;2022-08-05T05:54:30;3.20;;;2.90;;
751;SDS011;360;48.764;9.164;2022-08-05T05:56:57;3.57;;;2.77;;
751;SDS011;360;48.764;9.164;2022-08-05T05:59:24;2.80;;;2.60;;
751;SDS011;360;48.764;9.164;2022-08-05T06:01:52;3.20;;;3.00;;
751;SDS011;360;48.764;9.164;2022-08-05T06:04:20;3.07;;;2.83;;
751;SDS011;360;48.764;9.164;2022-08-05T06:06:47;3.10;;;2.17;;
751;SDS011;360;48.764;9.164;2022-08-05T06:09:14;3.67;;;3.43;;
751;SDS011;360;48.764;9.164;2022-08-05T06:11:42;2.77;;;2.57;;
751;SDS011;360;48.764;9.164;2022-08-05T06:14:09;3.73;;;2.47;;
751;SDS011;360;48.764;9.164;2022-08-05T06:16:36;2.40;;;2.20;;
751;SDS011;360;48.764;9.164;2022-08-05T06:19:04;4.13;;;2.40;;
751;SDS011;360;48.764;9.164;2022-08-05T06:21:32;2.60;;;2.40;;
751;SDS011;360;48.764;9.164;2022-08-05T06:24:00;2.60;;;2.07;;
751;SDS011;360;48.764;9.164;2022-08-05T06:26:27;2.33;;;2.17;;
751;SDS011;360;48.764;9.164;2022-08-05T06:28:54;3.30;;;2.80;;
751;SDS011;360;48.764;9.164;2022-08-05T06:31:21;2.70;;;2.50;;
751;SDS011;360;48.764;9.164;2022-08-05T06:33:48;2.20;;;2.00;;
751;SDS011;360;48.764;9.164;2022-08-05T06:36:15;2.50;;;2.30;;
751;SDS011;360;48.764;9.164;2022-08-05T06:38:44;2.73;;;2.53;;
751;SDS011;360;48.764;9.164;2022-08-05T06:41:11;2.40;;;2.07;;
751;SDS011;360;48.764;9.164;2022-08-05T06:43:38;3.60;;;2.90;;
751;SDS011;360;48.764;9.164;2022-08-05T06:46:05;3.10;;;2.57;;
751;SDS011;360;48.764;9.164;2022-08-05T06:48:32;2.43;;;2.23;;
751;SDS011;360;48.764;9.164;2022-08-05T06:51:00;2.73;;;1.97;;
751;SDS011;360;48.764;9.164;2022-08-05T06:53:27;2.77;;;2.20;;
751;SDS011;360;48.764;9.164;2022-08-05T06:55:56;2.80;;;1.87;;
751;SDS011;360;48.764;9.164;2022-08-05T06:58:23;2.73;;;2.30;;
751;SDS011;360;48.764;9.164;2022-08-05T07:00:50;2.63;;;2.43;;
751;SDS011;360;48.764;9.164;2022-08-05T07:03:17;2.23;;;2.03;;
751;SDS011;360;48.764;9.164;2022-08-05T07:05:45;3.23;;;2.00;;
751;SDS011;360;48.764;9.164;2022-08-05T07:08:12;2.60;;;2.40;;
751;SDS011;360;48.764;9.164;2022-08-05T07:10:39;3.50;;;2.40;;
751;SDS011;360;48.764;9.164;2022-08-05T07:13:07;3.00;;;2.53;;
751;SDS011;360;48.764;9.164;2022-08-05T07:15:52;4.03;;;2.20;;
751;SDS011;360;48.764;9.164;2022-08-05T07:18:37;2.00;;;1.80;;
751;SDS011;360;48.764;9.164;2022-08-05T07:21:04;2.93;;;2.47;;
751;SDS011;360;48.764;9.164;2022-08-05T07:23:32;2.63;;;2.43;;
751;SDS011;360;48.764;9.164;2022-08-05T07:25:59;2.87;;;2.33;;
751;SDS011;360;48.764;9.164;2022-08-05T07:28:27;2.70;;;2.30;;
751;SDS011;360;48.764;9.164;2022-08-05T07:30:55;2.03;;;1.83;;
751;SDS011;360;48.764;9.164;2022-08-05T07:33:22;1.97;;;1.87;;
751;SDS011;360;48.764;9.164;2022-08-05T07:35:49;2.20;;;2.00;;
751;SDS011;360;48.764;9.164;2022-08-05T07:38:16;3.87;;;1.77;;
751;SDS011;360;48.764;9.164;2022-08-05T07:40:44;4.70;;;2.10;;
751;SDS011;360;48.764;9.164;2022-08-05T07:43:11;2.27;;;2.07;;
751;SDS011;360;48.764;9.164;2022-08-05T07:45:40;1.80;;;1.70;;
751;SDS011;360;48.764;9.164;2022-08-05T07:48:08;2.40;;;2.17;;
751;SDS011;360;48.764;9.164;2022-08-05T07:50:35;3.53;;;1.93;;
751;SDS011;360;48.764;9.164;2022-08-05T07:53:02;2.57;;;2.37;;
751;SDS011;360;48.764;9.164;2022-08-05T07:55:29;2.50;;;1.70;;
751;SDS011;360;48.764;9.164;2022-08-05T07:57:56;2.47;;;2.13;;
751;SDS011;360;48.764;9.164;2022-08-05T08:00:24;1.90;;;1.70;;
751;SDS011;360;48.764;9.164;2022-08-05T08:02:52;2.27;;;1.77;;
751;SDS011;360;48.764;9.164;2022-08-05T08:05:19;2.07;;;1.90;;
751;SDS011;360;48.764;9.164;2022-08-05T08:07:46;5.10;;;1.77;;
751;SDS011;360;48.764;9.164;2022-08-05T08:10:14;1.97;;;1.77;;
751;SDS011;360;48.764;9.164;2022-08-05T08:12:41;2.13;;;1.93;;
751;SDS011;360;48.764;9.164;2022-08-05T08:15:09;1.83;;;1.50;;
751;SDS011;360;48.764;9.164;2022-08-05T08:17:36;1.40;;;1.30;;
751;SDS011;360;48.764;9.164;2022-08-05T08:20:05;1.40;;;1.30;;
751;SDS011;360;48.764;9.164;2022-08-05T08:22:32;1.33;;;1.20;;
751;SDS011;360;48.764;9.164;2022-08-05T08:24:59;2.13;;;1.90;;
751;SDS011;360;48.764;9.164;2022-08-05T08:27:26;1.90;;;1.80;;
751;SDS011;360;48.764;9.164;2022-08-05T08:29:54;2.00;;;1.80;;
751;SDS011;360;48.764;9.164;2022-08-05T08:32:21;2.57;;;2.37;;
751;SDS011;360;48.764;9.164;2022-08-05T08:34:48;2.03;;;1.63;;
751;SDS011;360;48.764;9.164;2022-08-05T08:37:17;1.37;;;1.27;;
751;SDS011;360;48.764;9.164;2022-08-05T08:39:44;1.80;;;1.67;;
751;SDS011;360;48.764;9.164;2022-08-05T08:42:12;5.80;;;1.80;;
751;SDS011;360;48.764;9.164;2022-08-05T08:44:39;1.93;;;1.57;;
751;SDS011;360;48.764;9.164;2022-08-05T08:47:08;1.53;;;1.27;;
751;SDS011;360;48.764;9.164;2022-08-05T08:49:36;1.83;;;1.20;;
751;SDS011;360;48.764;9.164;2022-08-05T08:52:07;2.20;;;1.67;;
751;SDS011;360;48.764;9.164;2022-08-05T08:54:38;2.00;;;1.80;;
751;SDS011;360;48.764;9.164;2022-08-05T08:57:06;1.80;;;1.33;;
751;SDS011;360;48.764;9.164;2022-08-05T08:59:34;1.43;;;1.33;;
751;SDS011;360;48.764;9.164;2022-08-05T09:02:03;2.43;;;1.70;;
751;SDS011;360;48.764;9.164;2022-08-05T09:04:32;4.10;;;1.57;;
751;SDS011;360;48.764;9.164;2022-08-05T09:07:01;1.60;;;1.50;;
751;SDS011;360;48.764;9.164;2022-08-05T09:09:29;1.60;;;1.50;;
751;SDS011;360;48.764;9.164;2022-08-05T09:11:57;1.83;;;1.20;;
751;SDS011;360;48.764;9.164;2022-08-05T09:14:24;2.33;;;1.57;;
751;SDS011;360;48.764;9.164;2022-08-05T09:16:52;3.67;;;1.23;;
751;SDS011;360;48.764;9.164;2022-08-05T09:19:19;1.73;;;1.60;;
751;SDS011;360;48.764;9.164;2022-08-05T09:21:46;2.53;;;1.77;;
751;SDS011;360;48.764;9.164;2022-08-05T09:24:14;1.77;;;1.67;;
751;SDS011;360;48.764;9.164;2022-08-05T09:26:41;2.17;;;1.40;;
751;SDS011;360;48.764;9.164;2022-08-05T09:29:13;1.73;;;1.63;;
751;SDS011;360;48.764;9.164;2022-08-05T09:31:41;2.90;;;1.60;;
751;SDS011;360;48.764;9.164;2022-08-05T09:34:10;1.53;;;1.43;;
751;SDS011;360;48.764;9.164;2022-08-05T09:36:41;1.50;;;1.40;;
751;SDS011;360;48.764;9.164;2022-08-05T09:39:09;1.60;;;1.50;;
751;SDS011;360;48.764;9.164;2022-08-05T09:41:56;1.63;;;1.53;;
751;SDS011;360;48.764;9.164;2022-08-05T09:44:34;1.60;;;1.50;;
751;SDS011;360;48.764;9.164;2022-08-05T09:47:09;1.90;;;1.80;;
751;SDS011;360;48.764;9.164;2022-08-05T09:49:40;1.60;;;1.50;;
751;SDS011;360;48.764;9.164;2022-08-05T09:52:17;1.60;;;1.50;;
751;SDS011;360;48.764;9.164;2022-08-05T09:54:54;2.20;;;1.90;;
751;SDS011;360;48.764;9.164;2022-08-05T09:57:33;1.60;;;1.50;;
751;SDS011;360;48.764;9.164;2022-08-05T10:00:04;2.00;;;1.50;;
751;SDS011;360;48.764;9.164;2022-08-05T10:02:32;2.93;;;1.37;;
751;SDS011;360;48.764;9.164;2022-08-05T10:05:06;1.60;;;1.27;;
751;SDS011;360;48.764;9.164;2022-08-05T10:07:46;1.53;;;1.30;;
751;SDS011;360;48.764;9.164;2022-08-05T10:10:13;1.40;;;1.30;;
751;SDS011;360;48.764;9.164;2022-08-05T10:12:44;1.87;;;1.57;;
751;SDS011;360;48.764;9.164;2022-08-05T10:15:18;2.60;;;1.80;;
751;SDS011;360;48.764;9.164;2022-08-05T10:18:00;1.57;;;1.43;;
751;SDS011;360;48.764;9.164;2022-08-05T10:20:28;1.30;;;1.20;;
751;SDS011;360;48.764;9.164;2022-08-05T10:22:55;2.20;;;1.70;;
751;SDS011;360;48.764;9.164;2022-08-05T10:25:23;1.73;;;1.47;;
751;SDS011;360;48.764;9.164;2022-08-05T10:27:50;3.30;;;1.27;;
751;SDS011;360;48.764;9.164;2022-08-05T10:30:20;3.43;;;1.50;;
751;SDS011;360;48.764;9.164;2022-08-05T10:32:47;2.00;;;1.80;;
751;SDS011;360;48.764;9.164;2022-08-05T10:35:14;1.47;;;1.37;;
751;SDS011;360;48.764;9.164;2022-08-05T10:37:42;2.03;;;1.83;;
751;SDS011;360;48.764;9.164;2022-08-05T10:40:13;1.40;;;1.30;;
751;SDS011;360;48.764;9.164;2022-08-05T10:42:41;1.60;;;1.50;;
751;SDS011;360;48.764;9.164;2022-08-05T10:45:10;1.60;;;1.50;;
751;SDS011;360;48.764;9.164;2022-08-05T10:47:39;2.63;;;1.80;;
751;SDS011;360;48.764;9.164;2022-08-05T10:50:09;1.90;;;1.70;;
751;SDS011;360;48.764;9.164;2022-08-05T10:52:38;1.65;;;1.55;;
751;SDS011;360;48.764;9.164;2022-08-05T10:55:06;1.40;;;1.30;;
751;SDS011;360;48.764;9.164;2022-08-05T10:57:35;1.80;;;1.42;;
751;SDS011;360;48.764;9.164;2022-08-05T11:00:06;1.95;;;1.75;;
751;SDS011;360;48.764;9.164;2022-08-05T11:02:33;2.20;;;1.50;;
751;SDS011;360;48.764;9.164;2022-08-05T11:05:03;1.80;;;1.70;;
751;SDS011;360;48.764;9.164;2022-08-05T11:07:31;2.40;;;1.70;;
751;SDS011;360;48.764;9.164;2022-08-05T11:09:59;1.42;;;1.30;;
751;SDS011;360;48.764;9.164;2022-08-05T11:12:43;2.95;;;1.65;;
751;SDS011;360;48.764;9.164;2022-08-05T11:15:20;1.92;;;1.80;;
751;SDS011;360;48.764;9.164;2022-08-05T11:17:48;1.95;;;1.75;;
751;SDS011;360;48.764;9.164;2022-08-05T11:20:32;1.60;;;1.48;;
751;SDS011;360;48.764;9.164;2022-08-05T11:25:43;1.83;;;1.67;;
751;SDS011;360;48.764;9.164;2022-08-05T11:28:39;2.13;;;1.70;;
751;SDS011;360;48.764;9.164;2022-08-05T11:31:18;1.60;;;1.50;;
751;SDS011;360;48.764;9.164;2022-08-05T11:33:51;1.63;;;1.52;;
751;SDS011;360;48.764;9.164;2022-08-05T11:36:37;1.70;;;1.52;;
751;SDS011;360;48.764;9.164;2022-08-05T11:39:04;2.33;;;1.92;;
751;SDS011;360;48.764;9.164;2022-08-05T11:41:31;2.33;;;1.95;;
751;SDS011;360;48.764;9.164;2022-08-05T11:44:01;1.85;;;1.70;;
751;SDS011;360;48.764;9.164;2022-08-05T11:46:29;1.60;;;1.50;;
751;SDS011;360;48.764;9.164;2022-08-05T11:48:56;1.70;;;1.60;;
751;SDS011;360;48.764;9.164;2022-08-05T11:51:26;1.80;;;1.70;;
751;SDS011;360;48.764;9.164;2022-08-05T11:53:54;2.03;;;1.80;;
751;SDS011;360;48.764;9.164;2022-08-05T11:56:21;2.45;;;1.50;;
751;SDS011;360;48.764;9.164;2022-08-05T11:58:49;1.70;;;1.60;;
751;SDS011;360;48.764;9.164;2022-08-05T12:01:17;1.77;;;1.63;;
751;SDS011;360;48.764;9.164;2022-08-05T12:03:44;1.70;;;1.55;;
751;SDS011;360;48.764;9.164;2022-08-05T12:06:13;1.77;;;1.67;;
751;SDS011;360;48.764;9.164;2022-08-05T12:08:43;1.90;;;1.80;;
751;SDS011;360;48.764;9.164;2022-08-05T12:11:11;2.00;;;1.88;;
751;SDS011;360;48.764;9.164;2022-08-05T12:13:42;2.05;;;1.85;;
751;SDS011;360;48.764;9.164;2022-08-05T12:16:18;2.17;;;2.08;;
751;SDS011;360;48.764;9.164;2022-08-05T12:18:45;2.10;;;1.90;;
751;SDS011;360;48.764;9.164;2022-08-05T12:21:13;2.00;;;1.85;;
751;SDS011;360;48.764;9.164;2022-08-05T12:23:51;1.60;;;1.50;;
751;SDS011;360;48.764;9.164;2022-08-05T12:26:18;2.10;;;1.90;;
751;SDS011;360;48.764;9.164;2022-08-05T12:28:45;2.55;;;1.63;;
751;SDS011;360;48.764;9.164;2022-08-05T12:31:13;2.20;;;2.00;;
751;SDS011;360;48.764;9.164;2022-08-05T12:33:40;1.70;;;1.60;;
751;SDS011;360;48.764;9.164;2022-08-05T12:36:08;2.15;;;1.80;;
751;SDS011;360;48.764;9.164;2022-08-05T12:38:36;2.65;;;2.20;;
751;SDS011;360;48.764;9.164;2022-08-05T12:41:07;4.35;;;1.98;;
751;SDS011;360;48.764;9.164;2022-08-05T12:43:34;3.03;;;2.72;;
751;SDS011;360;48.764;9.164;2022-08-05T12:46:19;3.28;;;2.05;;
751;SDS011;360;48.764;9.164;2022-08-05T12:48:46;2.05;;;1.85;;
751;SDS011;360;48.764;9.164;2022-08-05T12:51:13;2.17;;;1.98;;
751;SDS011;360;48.764;9.164;2022-08-05T12:53:43;3.03;;;2.00;;
751;SDS011;360;48.764;9.164;2022-08-05T12:56:16;1.80;;;1.70;;
751;SDS011;360;48.764;9.164;2022-08-05T12:58:43;1.90;;;1.80;;
751;SDS011;360;48.764;9.164;2022-08-05T13:01:12;1.92;;;1.83;;
751;SDS011;360;48.764;9.164;2022-08-05T13:03:40;2.38;;;1.98;;
751;SDS011;360;48.764;9.164;2022-08-05T13:06:07;2.20;;;2.00;;
751;SDS011;360;48.764;9.164;2022-08-05T13:08:36;2.72;;;1.77;;
751;SDS011;360;48.764;9.164;2022-08-05T13:11:03;2.40;;;2.20;;
751;SDS011;360;48.764;9.164;2022-08-05T13:13:33;2.15;;;1.95;;
751;SDS011;360;48.764;9.164;2022-08-05T13:16:10;1.98;;;1.83;;
751;SDS011;360;48.764;9.164;2022-08-05T13:18:37;1.83;;;1.73;;
751;SDS011;360;48.764;9.164;2022-08-05T13:21:04;2.45;;;1.70;;
751;SDS011;360;48.764;9.164;2022-08-05T13:23:31;2.30;;;2.10;;
751;SDS011;360;48.764;9.164;2022-08-05T13:25:59;3.13;;;2.10;;
751;SDS011;360;48.764;9.164;2022-08-05T13:28:27;2.90;;;2.08;;
751;SDS011;360;48.764;9.164;2022-08-05T13:30:56;2.05;;;1.75;;
751;SDS011;360;48.764;9.164;2022-08-05T13:33:23;2.15;;;1.90;;
751;SDS011;360;48.764;9.164;2022-08-05T13:35:50;2.10;;;1.88;;
751;SDS011;360;48.764;9.164;2022-08-05T13:38:18;2.33;;;1.95;;
751;SDS011;360;48.764;9.164;2022-08-05T13:40:45;1.98;;;1.77;;
751;SDS011;360;48.764;9.164;2022-08-05T13:43:12;2.20;;;1.95;;
751;SDS011;360;48.764;9.164;2022-08-05T13:45:40;1.70;;;1.60;;
751;SDS011;360;48.764;9.164;2022-08-05T13:48:09;2.22;;;2.03;;
751;SDS011;360;48.764;9.164;2022-08-05T13:50:36;2.65;;;2.45;;
751;SDS011;360;48.764;9.164;2022-08-05T13:53:03;1.88;;;1.77;;
751;SDS011;360;48.764;9.164;2022-08-05T13:55:32;2.10;;;1.90;;
751;SDS011;360;48.764;9.164;2022-08-05T13:57:59;2.35;;;2.15;;
751;SDS011;360;48.764;9.164;2022-08-05T14:00:26;2.47;;;2.38;;
751;SDS011;360;48.764;9.164;2022-08-05T14:02:53;2.50;;;1.92;;
751;SDS011;360;48.764;9.164;2022-08-05T14:05:22;2.00;;;1.65;;
751;SDS011;360;48.764;9.164;2022-08-05T14:07:48;5.18;;;2.03;;
751;SDS011;360;48.764;9.164;2022-08-05T14:10:19;2.40;;;2.20;;
751;SDS011;360;48.764;9.164;2022-08-05T14:12:47;2.10;;;1.90;;
751;SDS011;360;48.764;9.164;2022-08-05T14:15:15;2.78;;;2.35;;
751;SDS011;360;48.764;9.164;2022-08-05T14:17:42;2.83;;;2.53;;
751;SDS011;360;48.764;9.164;2022-08-05T14:20:10;2.75;;;2.50;;
751;SDS011;360;48.764;9.164;2022-08-05T14:22:39;1.60;;;1.50;;
751;SDS011;360;48.764;9.164;2022-08-05T14:25:07;2.28;;;2.08;;
751;SDS011;360;48.764;9.164;2022-08-05T14:27:35;2.10;;;1.90;;
751;SDS011;360;48.764;9.164;2022-08-05T14:30:02;1.63;;;1.42;;
751;SDS011;360;48.764;9.164;2022-08-05T14:32:30;2.00;;;1.83;;
751;SDS011;360;48.764;9.164;2022-08-05T14:34:57;2.30;;;2.10;;
751;SDS011;360;48.764;9.164;2022-08-05T14:37:25;1.85;;;1.75;;
751;SDS011;360;48.764;9.164;2022-08-05T14:39:54;1.73;;;1.63;;
751;SDS011;360;48.764;9.164;2022-08-05T14:42:21;2.33;;;2.13;;
751;SDS011;360;48.764;9.164;2022-08-05T14:44:48;2.20;;;1.90;;
751;SDS011;360;48.764;9.164;2022-08-05T14:47:15;1.70;;;1.60;;
751;SDS011;360;48.764;9.164;2022-08-05T14:49:43;2.15;;;1.83;;
751;SDS011;360;48.764;9.164;2022-08-05T14:52:10;2.47;;;1.87;;
751;SDS011;360;48.764;9.164;2022-08-05T14:54:37;1.83;;;1.73;;
751;SDS011;360;48.764;9.164;2022-08-05T14:57:06;2.80;;;1.80;;
751;SDS011;360;48.764;9.164;2022-08-05T14:59:33;2.60;;;2.00;;
751;SDS011;360;48.764;9.164;2022-08-05T15:02:00;2.30;;;2.10;;
751;SDS011;360;48.764;9.164;2022-08-05T15:04:27;2.57;;;1.97;;
751;SDS011;360;48.764;9.164;2022-08-05T15:06:54;2.17;;;2.00;;
751;SDS011;360;48.764;9.164;2022-08-05T15:09:22;3.87;;;2.40;;
751;SDS011;360;48.764;9.164;2022-08-05T15:11:49;1.90;;;1.80;;
751;SDS011;360;48.764;9.164;2022-08-05T15:14:17;2.13;;;1.80;;
751;SDS011;360;48.764;9.164;2022-08-05T15:16:44;3.60;;;2.13;;
751;SDS011;360;48.764;9.164;2022-08-05T15:19:12;2.83;;;2.50;;
751;SDS011;360;48.764;9.164;2022-08-05T15:21:39;3.17;;;2.50;;
751;SDS011;360;48.764;9.164;2022-08-05T15:24:06;3.40;;;3.10;;
751;SDS011;360;48.764;9.164;2022-08-05T15:26:34;4.00;;;2.37;;
751;SDS011;360;48.764;9.164;2022-08-05T15:29:02;4.17;;;2.77;;
751;SDS011;360;48.764;9.164;2022-08-05T15:31:30;2.63;;;2.43;;
751;SDS011;360;48.764;9.164;2022-08-05T15:33:57;2.80;;;2.60;;
751;SDS011;360;48.764;9.164;2022-08-05T15:36:24;2.50;;;2.30;;
751;SDS011;360;48.764;9.164;2022-08-05T15:38:51;3.28;;;2.42;;
751;SDS011;360;48.764;9.164;2022-08-05T15:41:20;3.05;;;2.53;;
751;SDS011;360;48.764;9.164;2022-08-05T15:43:49;2.58;;;2.38;;
751;SDS011;360;48.764;9.164;2022-08-05T15:46:17;2.33;;;2.13;;
751;SDS011;360;48.764;9.164;2022-08-05T15:48:46;3.33;;;3.03;;
751;SDS011;360;48.764;9.164;2022-08-05T15:51:13;3.30;;;3.00;;
751;SDS011;360;48.764;9.164;2022-08-05T15:53:41;2.75;;;2.55;;
751;SDS011;360;48.764;9.164;2022-08-05T15:56:08;2.20;;;2.00;;